sensor_id;sensor_type;location;lat;lon;timestamp;P1;durP1;ratioP1;P2;durP2;ratioP2
3261;SDS011;1643;47.746;9.000;2022-07-24T00:01:34;9.33;;;8.27;;
3261;SDS011;1643;47.746;9.000;2022-07-24T00:04:00;8.60;;;7.80;;
3261;SDS011;1643;47.746;9.000;2022-07-24T00:06:25;9.10;;;8.23;;
3261;SDS011;1643;47.746;9.000;2022-07-24T00:08:51;8.73;;;7.93;;
3261;SDS011;1643;47.746;9.000;2022-07-24T00:11:17;8.20;;;7.50;;
3261;SDS011;1643;47.746;9.000;2022-07-24T00:13:43;9.07;;;8.17;;
3261;SDS011;1643;47.746;9.000;2022-07-24T00:16:08;8.40;;;7.60;;
3261;SDS011;1643;47.746;9.000;2022-07-24T00:18:34;8.80;;;8.03;;
3261;SDS011;1643;47.746;9.000;2022-07-24T00:21:00;8.93;;;8.10;;
3261;SDS011;1643;47.746;9.000;2022-07-24T00:23:26;9.90;;;8.90;;
3261;SDS011;1643;47.746;9.000;2022-07-24T00:25:52;9.97;;;9.10;;
3261;SDS011;1643;47.746;9.000;2022-07-24T00:28:18;9.77;;;8.80;;
3261;SDS011;1643;47.746;9.000;2022-07-24T00:30:44;8.63;;;7.83;;
3261;SDS011;1643;47.746;9.000;2022-07-24T00:33:10;10.13;;;8.50;;
3261;SDS011;1643;47.746;9.000;2022-07-24T00:35:36;8.80;;;8.10;;
3261;SDS011;1643;47.746;9.000;2022-07-24T00:38:02;8.20;;;7.37;;
3261;SDS011;1643;47.746;9.000;2022-07-24T00:40:28;9.00;;;8.10;;
3261;SDS011;1643;47.746;9.000;2022-07-24T00:42:55;10.97;;;8.13;;
3261;SDS011;1643;47.746;9.000;2022-07-24T00:45:21;8.53;;;7.73;;
3261;SDS011;1643;47.746;9.000;2022-07-24T00:47:47;8.63;;;7.83;;
3261;SDS011;1643;47.746;9.000;2022-07-24T00:50:12;9.73;;;8.83;;
3261;SDS011;1643;47.746;9.000;2022-07-24T00:52:38;9.50;;;8.23;;
3261;SDS011;1643;47.746;9.000;2022-07-24T00:55:04;9.47;;;8.57;;
3261;SDS011;1643;47.746;9.000;2022-07-24T00:57:30;9.57;;;8.67;;
3261;SDS011;1643;47.746;9.000;2022-07-24T00:59:56;9.23;;;8.43;;
3261;SDS011;1643;47.746;9.000;2022-07-24T01:02:22;8.90;;;8.10;;
3261;SDS011;1643;47.746;9.000;2022-07-24T01:04:48;9.67;;;8.67;;
3261;SDS011;1643;47.746;9.000;2022-07-24T01:07:14;9.60;;;8.70;;
3261;SDS011;1643;47.746;9.000;2022-07-24T01:09:40;10.10;;;9.07;;
3261;SDS011;1643;47.746;9.000;2022-07-24T01:12:06;9.87;;;8.47;;
3261;SDS011;1643;47.746;9.000;2022-07-24T01:14:32;9.60;;;8.70;;
3261;SDS011;1643;47.746;9.000;2022-07-24T01:16:59;9.40;;;8.40;;
3261;SDS011;1643;47.746;9.000;2022-07-24T01:19:25;9.90;;;9.00;;
3261;SDS011;1643;47.746;9.000;2022-07-24T01:21:51;10.27;;;8.40;;
3261;SDS011;1643;47.746;9.000;2022-07-24T01:24:18;9.60;;;8.70;;
3261;SDS011;1643;47.746;9.000;2022-07-24T01:26:45;12.30;;;8.70;;
3261;SDS011;1643;47.746;9.000;2022-07-24T01:29:12;10.20;;;9.20;;
3261;SDS011;1643;47.746;9.000;2022-07-24T01:31:39;11.30;;;10.30;;
3261;SDS011;1643;47.746;9.000;2022-07-24T01:34:05;10.50;;;9.40;;
3261;SDS011;1643;47.746;9.000;2022-07-24T01:36:31;10.30;;;9.20;;
3261;SDS011;1643;47.746;9.000;2022-07-24T01:38:56;11.40;;;8.90;;
3261;SDS011;1643;47.746;9.000;2022-07-24T01:41:22;11.27;;;10.17;;
3261;SDS011;1643;47.746;9.000;2022-07-24T01:43:48;10.10;;;9.20;;
3261;SDS011;1643;47.746;9.000;2022-07-24T01:46:14;11.83;;;10.70;;
3261;SDS011;1643;47.746;9.000;2022-07-24T01:48:43;10.80;;;9.70;;
3261;SDS011;1643;47.746;9.000;2022-07-24T01:51:09;10.80;;;9.80;;
3261;SDS011;1643;47.746;9.000;2022-07-24T01:53:35;12.10;;;10.83;;
3261;SDS011;1643;47.746;9.000;2022-07-24T01:56:01;11.33;;;10.33;;
3261;SDS011;1643;47.746;9.000;2022-07-24T01:58:28;11.20;;;10.20;;
3261;SDS011;1643;47.746;9.000;2022-07-24T02:00:53;11.50;;;10.27;;
3261;SDS011;1643;47.746;9.000;2022-07-24T02:03:19;12.00;;;10.83;;
3261;SDS011;1643;47.746;9.000;2022-07-24T02:05:45;11.50;;;10.30;;
3261;SDS011;1643;47.746;9.000;2022-07-24T02:08:11;12.87;;;10.83;;
3261;SDS011;1643;47.746;9.000;2022-07-24T02:10:37;13.93;;;11.40;;
3261;SDS011;1643;47.746;9.000;2022-07-24T02:13:03;12.07;;;10.90;;
3261;SDS011;1643;47.746;9.000;2022-07-24T02:15:28;12.50;;;11.20;;
3261;SDS011;1643;47.746;9.000;2022-07-24T02:17:55;12.63;;;11.30;;
3261;SDS011;1643;47.746;9.000;2022-07-24T02:20:23;10.80;;;9.80;;
3261;SDS011;1643;47.746;9.000;2022-07-24T02:22:49;10.80;;;9.70;;
3261;SDS011;1643;47.746;9.000;2022-07-24T02:25:15;17.93;;;11.80;;
3261;SDS011;1643;47.746;9.000;2022-07-24T02:27:41;12.60;;;11.40;;
3261;SDS011;1643;47.746;9.000;2022-07-24T02:30:09;11.57;;;10.33;;
3261;SDS011;1643;47.746;9.000;2022-07-24T02:32:37;11.30;;;10.10;;
3261;SDS011;1643;47.746;9.000;2022-07-24T02:35:03;11.40;;;10.30;;
3261;SDS011;1643;47.746;9.000;2022-07-24T02:37:29;13.23;;;11.30;;
3261;SDS011;1643;47.746;9.000;2022-07-24T02:39:55;12.60;;;11.17;;
3261;SDS011;1643;47.746;9.000;2022-07-24T02:42:20;14.67;;;11.40;;
3261;SDS011;1643;47.746;9.000;2022-07-24T02:44:46;10.43;;;9.37;;
3261;SDS011;1643;47.746;9.000;2022-07-24T02:47:12;10.80;;;9.80;;
3261;SDS011;1643;47.746;9.000;2022-07-24T02:49:37;10.33;;;9.07;;
3261;SDS011;1643;47.746;9.000;2022-07-24T02:52:03;9.53;;;8.67;;
3261;SDS011;1643;47.746;9.000;2022-07-24T02:54:29;9.63;;;8.73;;
3261;SDS011;1643;47.746;9.000;2022-07-24T02:56:55;9.77;;;8.80;;
3261;SDS011;1643;47.746;9.000;2022-07-24T02:59:21;10.37;;;9.40;;
3261;SDS011;1643;47.746;9.000;2022-07-24T03:01:47;11.57;;;10.13;;
3261;SDS011;1643;47.746;9.000;2022-07-24T03:04:12;9.80;;;8.90;;
3261;SDS011;1643;47.746;9.000;2022-07-24T03:06:38;10.07;;;9.07;;
3261;SDS011;1643;47.746;9.000;2022-07-24T03:09:04;11.40;;;9.47;;
3261;SDS011;1643;47.746;9.000;2022-07-24T03:11:29;11.73;;;9.60;;
3261;SDS011;1643;47.746;9.000;2022-07-24T03:13:55;10.30;;;9.23;;
3261;SDS011;1643;47.746;9.000;2022-07-24T03:16:21;10.37;;;9.37;;
3261;SDS011;1643;47.746;9.000;2022-07-24T03:18:46;10.80;;;9.73;;
3261;SDS011;1643;47.746;9.000;2022-07-24T03:21:13;12.40;;;10.70;;
3261;SDS011;1643;47.746;9.000;2022-07-24T03:23:40;10.70;;;9.60;;
3261;SDS011;1643;47.746;9.000;2022-07-24T03:26:06;10.87;;;9.77;;
3261;SDS011;1643;47.746;9.000;2022-07-24T03:28:34;11.20;;;10.20;;
3261;SDS011;1643;47.746;9.000;2022-07-24T03:31:00;12.23;;;9.70;;
3261;SDS011;1643;47.746;9.000;2022-07-24T03:33:27;10.40;;;9.40;;
3261;SDS011;1643;47.746;9.000;2022-07-24T03:35:53;13.67;;;9.57;;
3261;SDS011;1643;47.746;9.000;2022-07-24T03:38:19;10.60;;;9.07;;
3261;SDS011;1643;47.746;9.000;2022-07-24T03:40:45;10.10;;;9.10;;
3261;SDS011;1643;47.746;9.000;2022-07-24T03:43:11;10.73;;;9.63;;
3261;SDS011;1643;47.746;9.000;2022-07-24T03:45:37;10.50;;;9.50;;
3261;SDS011;1643;47.746;9.000;2022-07-24T03:48:03;11.80;;;9.93;;
3261;SDS011;1643;47.746;9.000;2022-07-24T03:50:30;12.70;;;9.20;;
3261;SDS011;1643;47.746;9.000;2022-07-24T03:52:56;10.70;;;9.63;;
3261;SDS011;1643;47.746;9.000;2022-07-24T03:55:22;11.97;;;9.70;;
3261;SDS011;1643;47.746;9.000;2022-07-24T03:57:48;12.23;;;10.10;;
3261;SDS011;1643;47.746;9.000;2022-07-24T04:00:14;11.40;;;10.20;;
3261;SDS011;1643;47.746;9.000;2022-07-24T04:02:40;10.80;;;9.70;;
3261;SDS011;1643;47.746;9.000;2022-07-24T04:05:06;9.73;;;8.80;;
3261;SDS011;1643;47.746;9.000;2022-07-24T04:07:34;12.43;;;10.17;;
3261;SDS011;1643;47.746;9.000;2022-07-24T04:10:03;12.53;;;9.80;;
3261;SDS011;1643;47.746;9.000;2022-07-24T04:12:30;10.87;;;9.20;;
3261;SDS011;1643;47.746;9.000;2022-07-24T04:14:56;11.73;;;10.50;;
3261;SDS011;1643;47.746;9.000;2022-07-24T04:17:22;11.13;;;9.27;;
3261;SDS011;1643;47.746;9.000;2022-07-24T04:19:47;10.77;;;9.67;;
3261;SDS011;1643;47.746;9.000;2022-07-24T04:22:13;12.97;;;8.60;;
3261;SDS011;1643;47.746;9.000;2022-07-24T04:24:39;11.37;;;10.10;;
3261;SDS011;1643;47.746;9.000;2022-07-24T04:27:04;11.33;;;9.70;;
3261;SDS011;1643;47.746;9.000;2022-07-24T04:29:30;10.10;;;9.10;;
3261;SDS011;1643;47.746;9.000;2022-07-24T04:31:56;10.60;;;9.60;;
3261;SDS011;1643;47.746;9.000;2022-07-24T04:34:21;11.23;;;8.80;;
3261;SDS011;1643;47.746;9.000;2022-07-24T04:36:47;10.27;;;9.17;;
3261;SDS011;1643;47.746;9.000;2022-07-24T04:39:13;11.17;;;9.97;;
3261;SDS011;1643;47.746;9.000;2022-07-24T04:41:39;11.23;;;9.93;;
3261;SDS011;1643;47.746;9.000;2022-07-24T04:44:04;10.70;;;9.70;;
3261;SDS011;1643;47.746;9.000;2022-07-24T04:46:30;11.10;;;9.10;;
3261;SDS011;1643;47.746;9.000;2022-07-24T04:48:55;10.97;;;8.47;;
3261;SDS011;1643;47.746;9.000;2022-07-24T04:51:21;10.43;;;9.47;;
3261;SDS011;1643;47.746;9.000;2022-07-24T04:53:47;9.70;;;8.80;;
3261;SDS011;1643;47.746;9.000;2022-07-24T04:56:13;9.80;;;8.80;;
3261;SDS011;1643;47.746;9.000;2022-07-24T04:58:39;10.30;;;9.40;;
3261;SDS011;1643;47.746;9.000;2022-07-24T05:01:04;10.70;;;9.70;;
3261;SDS011;1643;47.746;9.000;2022-07-24T05:03:31;11.00;;;9.73;;
3261;SDS011;1643;47.746;9.000;2022-07-24T05:05:57;11.00;;;9.90;;
3261;SDS011;1643;47.746;9.000;2022-07-24T05:08:22;11.47;;;10.17;;
3261;SDS011;1643;47.746;9.000;2022-07-24T05:10:48;13.60;;;11.33;;
3261;SDS011;1643;47.746;9.000;2022-07-24T05:13:14;12.07;;;10.80;;
3261;SDS011;1643;47.746;9.000;2022-07-24T05:15:39;11.60;;;10.40;;
3261;SDS011;1643;47.746;9.000;2022-07-24T05:18:05;12.30;;;10.77;;
3261;SDS011;1643;47.746;9.000;2022-07-24T05:20:31;10.73;;;9.40;;
3261;SDS011;1643;47.746;9.000;2022-07-24T05:22:56;10.93;;;9.20;;
3261;SDS011;1643;47.746;9.000;2022-07-24T05:25:22;10.97;;;9.70;;
3261;SDS011;1643;47.746;9.000;2022-07-24T05:27:48;10.47;;;9.30;;
3261;SDS011;1643;47.746;9.000;2022-07-24T05:30:13;10.17;;;9.17;;
3261;SDS011;1643;47.746;9.000;2022-07-24T05:32:39;10.73;;;9.63;;
3261;SDS011;1643;47.746;9.000;2022-07-24T05:35:05;15.23;;;9.07;;
3261;SDS011;1643;47.746;9.000;2022-07-24T05:37:30;9.57;;;8.70;;
3261;SDS011;1643;47.746;9.000;2022-07-24T05:39:56;13.07;;;11.70;;
3261;SDS011;1643;47.746;9.000;2022-07-24T05:42:22;12.97;;;11.77;;
3261;SDS011;1643;47.746;9.000;2022-07-24T05:44:47;12.17;;;11.00;;
3261;SDS011;1643;47.746;9.000;2022-07-24T05:47:13;14.27;;;12.77;;
3261;SDS011;1643;47.746;9.000;2022-07-24T05:49:39;15.67;;;13.83;;
3261;SDS011;1643;47.746;9.000;2022-07-24T05:52:04;11.80;;;10.60;;
3261;SDS011;1643;47.746;9.000;2022-07-24T05:54:33;11.30;;;10.10;;
3261;SDS011;1643;47.746;9.000;2022-07-24T05:56:58;10.97;;;9.83;;
3261;SDS011;1643;47.746;9.000;2022-07-24T05:59:24;11.83;;;10.63;;
3261;SDS011;1643;47.746;9.000;2022-07-24T06:01:49;12.63;;;10.70;;
3261;SDS011;1643;47.746;9.000;2022-07-24T06:04:15;13.30;;;11.90;;
3261;SDS011;1643;47.746;9.000;2022-07-24T06:06:41;13.80;;;11.63;;
3261;SDS011;1643;47.746;9.000;2022-07-24T06:09:06;11.77;;;10.30;;
3261;SDS011;1643;47.746;9.000;2022-07-24T06:11:32;15.13;;;11.13;;
3261;SDS011;1643;47.746;9.000;2022-07-24T06:13:58;12.73;;;11.20;;
3261;SDS011;1643;47.746;9.000;2022-07-24T06:16:24;12.10;;;10.80;;
3261;SDS011;1643;47.746;9.000;2022-07-24T06:18:49;12.90;;;10.83;;
3261;SDS011;1643;47.746;9.000;2022-07-24T06:21:15;11.10;;;10.00;;
3261;SDS011;1643;47.746;9.000;2022-07-24T06:23:41;11.50;;;10.40;;
3261;SDS011;1643;47.746;9.000;2022-07-24T06:26:07;12.20;;;11.00;;
3261;SDS011;1643;47.746;9.000;2022-07-24T06:28:33;11.27;;;10.17;;
3261;SDS011;1643;47.746;9.000;2022-07-24T06:30:58;12.20;;;9.60;;
3261;SDS011;1643;47.746;9.000;2022-07-24T06:33:24;9.43;;;8.63;;
3261;SDS011;1643;47.746;9.000;2022-07-24T06:35:50;9.37;;;8.57;;
3261;SDS011;1643;47.746;9.000;2022-07-24T06:38:15;10.70;;;9.70;;
3261;SDS011;1643;47.746;9.000;2022-07-24T06:40:41;10.10;;;9.20;;
3261;SDS011;1643;47.746;9.000;2022-07-24T06:43:07;10.60;;;9.50;;
3261;SDS011;1643;47.746;9.000;2022-07-24T06:45:33;10.50;;;9.40;;
3261;SDS011;1643;47.746;9.000;2022-07-24T06:47:59;10.50;;;9.50;;
3261;SDS011;1643;47.746;9.000;2022-07-24T06:50:26;11.07;;;10.03;;
3261;SDS011;1643;47.746;9.000;2022-07-24T06:52:52;11.80;;;8.90;;
3261;SDS011;1643;47.746;9.000;2022-07-24T06:55:17;10.07;;;9.07;;
3261;SDS011;1643;47.746;9.000;2022-07-24T06:57:43;9.57;;;8.67;;
3261;SDS011;1643;47.746;9.000;2022-07-24T07:00:09;10.07;;;9.00;;
3261;SDS011;1643;47.746;9.000;2022-07-24T07:02:35;10.20;;;9.10;;
3261;SDS011;1643;47.746;9.000;2022-07-24T07:05:01;9.97;;;8.97;;
3261;SDS011;1643;47.746;9.000;2022-07-24T07:07:28;10.27;;;9.20;;
3261;SDS011;1643;47.746;9.000;2022-07-24T07:09:53;10.27;;;9.27;;
3261;SDS011;1643;47.746;9.000;2022-07-24T07:12:19;9.40;;;8.50;;
3261;SDS011;1643;47.746;9.000;2022-07-24T07:14:44;10.00;;;9.00;;
3261;SDS011;1643;47.746;9.000;2022-07-24T07:17:10;9.23;;;8.30;;
3261;SDS011;1643;47.746;9.000;2022-07-24T07:19:36;9.97;;;8.97;;
3261;SDS011;1643;47.746;9.000;2022-07-24T07:22:01;12.20;;;10.87;;
3261;SDS011;1643;47.746;9.000;2022-07-24T07:24:27;10.50;;;9.47;;
3261;SDS011;1643;47.746;9.000;2022-07-24T07:26:52;9.70;;;8.80;;
3261;SDS011;1643;47.746;9.000;2022-07-24T07:29:18;10.20;;;9.00;;
3261;SDS011;1643;47.746;9.000;2022-07-24T07:31:44;10.43;;;9.37;;
3261;SDS011;1643;47.746;9.000;2022-07-24T07:34:10;11.67;;;9.33;;
3261;SDS011;1643;47.746;9.000;2022-07-24T07:36:35;12.33;;;10.07;;
3261;SDS011;1643;47.746;9.000;2022-07-24T07:39:01;10.43;;;9.43;;
3261;SDS011;1643;47.746;9.000;2022-07-24T07:41:27;10.33;;;9.30;;
3261;SDS011;1643;47.746;9.000;2022-07-24T07:43:52;11.27;;;9.57;;
3261;SDS011;1643;47.746;9.000;2022-07-24T07:46:18;10.20;;;9.30;;
3261;SDS011;1643;47.746;9.000;2022-07-24T07:48:44;8.73;;;8.03;;
3261;SDS011;1643;47.746;9.000;2022-07-24T07:51:10;11.00;;;9.03;;
3261;SDS011;1643;47.746;9.000;2022-07-24T07:53:36;9.47;;;8.57;;
3261;SDS011;1643;47.746;9.000;2022-07-24T07:56:02;10.27;;;9.20;;
3261;SDS011;1643;47.746;9.000;2022-07-24T07:58:29;8.70;;;7.90;;
3261;SDS011;1643;47.746;9.000;2022-07-24T08:00:54;8.90;;;8.03;;
3261;SDS011;1643;47.746;9.000;2022-07-24T08:03:20;8.70;;;7.97;;
3261;SDS011;1643;47.746;9.000;2022-07-24T08:05:46;10.00;;;9.00;;
3261;SDS011;1643;47.746;9.000;2022-07-24T08:08:12;8.90;;;8.10;;
3261;SDS011;1643;47.746;9.000;2022-07-24T08:10:43;10.10;;;8.90;;
3261;SDS011;1643;47.746;9.000;2022-07-24T08:13:12;9.97;;;9.07;;
3261;SDS011;1643;47.746;9.000;2022-07-24T08:15:42;9.77;;;8.87;;
3261;SDS011;1643;47.746;9.000;2022-07-24T08:18:09;9.23;;;8.27;;
3261;SDS011;1643;47.746;9.000;2022-07-24T08:20:34;10.13;;;9.13;;
3261;SDS011;1643;47.746;9.000;2022-07-24T08:23:00;9.80;;;8.90;;
3261;SDS011;1643;47.746;9.000;2022-07-24T08:25:26;10.10;;;8.80;;
3261;SDS011;1643;47.746;9.000;2022-07-24T08:27:52;10.67;;;9.67;;
3261;SDS011;1643;47.746;9.000;2022-07-24T08:30:17;10.83;;;9.87;;
3261;SDS011;1643;47.746;9.000;2022-07-24T08:32:43;10.00;;;9.10;;
3261;SDS011;1643;47.746;9.000;2022-07-24T08:35:10;10.37;;;9.47;;
3261;SDS011;1643;47.746;9.000;2022-07-24T08:37:36;10.40;;;9.33;;
3261;SDS011;1643;47.746;9.000;2022-07-24T08:40:03;11.60;;;9.07;;
3261;SDS011;1643;47.746;9.000;2022-07-24T08:42:30;10.20;;;9.20;;
3261;SDS011;1643;47.746;9.000;2022-07-24T08:44:56;11.20;;;10.00;;
3261;SDS011;1643;47.746;9.000;2022-07-24T08:47:22;10.07;;;9.07;;
3261;SDS011;1643;47.746;9.000;2022-07-24T08:49:50;9.97;;;8.97;;
3261;SDS011;1643;47.746;9.000;2022-07-24T08:52:18;10.47;;;9.50;;
3261;SDS011;1643;47.746;9.000;2022-07-24T08:54:47;8.90;;;8.10;;
3261;SDS011;1643;47.746;9.000;2022-07-24T08:57:12;9.60;;;8.60;;
3261;SDS011;1643;47.746;9.000;2022-07-24T08:59:38;9.63;;;8.63;;
3261;SDS011;1643;47.746;9.000;2022-07-24T09:02:03;9.80;;;8.87;;
3261;SDS011;1643;47.746;9.000;2022-07-24T09:04:37;10.33;;;9.33;;
3261;SDS011;1643;47.746;9.000;2022-07-24T09:07:08;9.50;;;8.57;;
3261;SDS011;1643;47.746;9.000;2022-07-24T09:09:36;8.83;;;8.00;;
3261;SDS011;1643;47.746;9.000;2022-07-24T09:14:32;8.67;;;7.90;;
3261;SDS011;1643;47.746;9.000;2022-07-24T09:17:32;8.93;;;8.00;;
3261;SDS011;1643;47.746;9.000;2022-07-24T09:19:52;8.60;;;7.80;;
3261;SDS011;1643;47.746;9.000;2022-07-24T09:27:31;8.97;;;8.10;;
3261;SDS011;1643;47.746;9.000;2022-07-24T09:29:57;8.80;;;8.00;;
3261;SDS011;1643;47.746;9.000;2022-07-24T09:32:23;9.90;;;8.87;;
3261;SDS011;1643;47.746;9.000;2022-07-24T09:34:50;10.43;;;8.30;;
3261;SDS011;1643;47.746;9.000;2022-07-24T09:37:17;9.20;;;8.30;;
3261;SDS011;1643;47.746;9.000;2022-07-24T09:39:44;9.50;;;7.93;;
3261;SDS011;1643;47.746;9.000;2022-07-24T09:42:10;8.63;;;7.83;;
3261;SDS011;1643;47.746;9.000;2022-07-24T09:44:36;11.53;;;9.40;;
3261;SDS011;1643;47.746;9.000;2022-07-24T09:47:04;11.93;;;9.90;;
3261;SDS011;1643;47.746;9.000;2022-07-24T09:49:31;10.23;;;9.20;;
3261;SDS011;1643;47.746;9.000;2022-07-24T09:54:39;11.63;;;8.50;;
3261;SDS011;1643;47.746;9.000;2022-07-24T09:57:45;12.30;;;8.90;;
3261;SDS011;1643;47.746;9.000;2022-07-24T10:00:04;9.40;;;8.60;;
3261;SDS011;1643;47.746;9.000;2022-07-24T10:02:33;8.90;;;8.10;;
3261;SDS011;1643;47.746;9.000;2022-07-24T10:04:59;8.50;;;7.80;;
3261;SDS011;1643;47.746;9.000;2022-07-24T10:07:26;9.57;;;8.07;;
3261;SDS011;1643;47.746;9.000;2022-07-24T10:09:54;9.40;;;8.50;;
3261;SDS011;1643;47.746;9.000;2022-07-24T10:12:23;9.97;;;8.97;;
3261;SDS011;1643;47.746;9.000;2022-07-24T10:14:51;9.60;;;8.60;;
3261;SDS011;1643;47.746;9.000;2022-07-24T10:17:19;10.07;;;8.83;;
3261;SDS011;1643;47.746;9.000;2022-07-24T10:19:46;10.47;;;9.33;;
3261;SDS011;1643;47.746;9.000;2022-07-24T10:22:20;10.87;;;9.77;;
3261;SDS011;1643;47.746;9.000;2022-07-24T10:29:59;10.23;;;9.33;;
3261;SDS011;1643;47.746;9.000;2022-07-24T10:32:28;10.60;;;9.60;;
3261;SDS011;1643;47.746;9.000;2022-07-24T10:35:11;10.67;;;9.57;;
3261;SDS011;1643;47.746;9.000;2022-07-24T10:40:55;10.23;;;9.23;;
3261;SDS011;1643;47.746;9.000;2022-07-24T10:43:30;7.83;;;7.20;;
3261;SDS011;1643;47.746;9.000;2022-07-24T10:53:27;10.13;;;9.17;;
3261;SDS011;1643;47.746;9.000;2022-07-24T10:55:53;11.10;;;9.90;;
3261;SDS011;1643;47.746;9.000;2022-07-24T11:01:27;9.60;;;8.70;;
3261;SDS011;1643;47.746;9.000;2022-07-24T11:06:48;9.40;;;8.60;;
3261;SDS011;1643;47.746;9.000;2022-07-24T11:09:16;9.23;;;8.40;;
3261;SDS011;1643;47.746;9.000;2022-07-24T11:15:03;9.30;;;8.37;;
3261;SDS011;1643;47.746;9.000;2022-07-24T11:20:05;9.30;;;7.73;;
3261;SDS011;1643;47.746;9.000;2022-07-24T11:22:37;9.67;;;8.77;;
3261;SDS011;1643;47.746;9.000;2022-07-24T11:25:33;10.40;;;9.40;;
3261;SDS011;1643;47.746;9.000;2022-07-24T11:28:11;11.57;;;9.53;;
3261;SDS011;1643;47.746;9.000;2022-07-24T11:30:42;8.23;;;7.53;;
3261;SDS011;1643;47.746;9.000;2022-07-24T11:33:12;9.43;;;8.63;;
3261;SDS011;1643;47.746;9.000;2022-07-24T11:35:45;11.03;;;8.33;;
3261;SDS011;1643;47.746;9.000;2022-07-24T11:38:10;8.93;;;8.23;;
3261;SDS011;1643;47.746;9.000;2022-07-24T11:40:36;11.20;;;10.20;;
3261;SDS011;1643;47.746;9.000;2022-07-24T11:43:03;16.40;;;9.10;;
3261;SDS011;1643;47.746;9.000;2022-07-24T11:45:30;9.43;;;8.13;;
3261;SDS011;1643;47.746;9.000;2022-07-24T11:47:57;10.97;;;9.50;;
3261;SDS011;1643;47.746;9.000;2022-07-24T11:50:23;9.43;;;8.50;;
3261;SDS011;1643;47.746;9.000;2022-07-24T11:52:50;9.70;;;8.70;;
3261;SDS011;1643;47.746;9.000;2022-07-24T11:55:17;8.63;;;7.80;;
3261;SDS011;1643;47.746;9.000;2022-07-24T11:57:51;8.57;;;7.87;;
3261;SDS011;1643;47.746;9.000;2022-07-24T12:00:20;8.63;;;7.83;;
3261;SDS011;1643;47.746;9.000;2022-07-24T12:02:50;9.43;;;8.57;;
3261;SDS011;1643;47.746;9.000;2022-07-24T12:05:33;7.70;;;7.00;;
3261;SDS011;1643;47.746;9.000;2022-07-24T12:08:03;9.80;;;8.80;;
3261;SDS011;1643;47.746;9.000;2022-07-24T12:10:39;8.20;;;7.40;;
3261;SDS011;1643;47.746;9.000;2022-07-24T12:13:05;9.60;;;8.60;;
3261;SDS011;1643;47.746;9.000;2022-07-24T12:15:31;8.47;;;7.77;;
3261;SDS011;1643;47.746;9.000;2022-07-24T12:18:04;7.67;;;6.93;;
3261;SDS011;1643;47.746;9.000;2022-07-24T12:23:05;7.87;;;7.17;;
3261;SDS011;1643;47.746;9.000;2022-07-24T12:25:33;7.30;;;6.70;;
3261;SDS011;1643;47.746;9.000;2022-07-24T12:28:11;8.00;;;7.33;;
3261;SDS011;1643;47.746;9.000;2022-07-24T12:30:43;8.03;;;7.33;;
3261;SDS011;1643;47.746;9.000;2022-07-24T12:38:24;8.60;;;7.80;;
3261;SDS011;1643;47.746;9.000;2022-07-24T12:40:50;7.60;;;7.00;;
3261;SDS011;1643;47.746;9.000;2022-07-24T12:43:16;7.67;;;7.00;;
3261;SDS011;1643;47.746;9.000;2022-07-24T12:45:41;8.10;;;6.90;;
3261;SDS011;1643;47.746;9.000;2022-07-24T12:50:37;9.80;;;7.30;;
3261;SDS011;1643;47.746;9.000;2022-07-24T12:53:07;7.47;;;6.80;;
3261;SDS011;1643;47.746;9.000;2022-07-24T12:55:34;8.03;;;7.07;;
3261;SDS011;1643;47.746;9.000;2022-07-24T12:58:01;6.67;;;6.07;;
3261;SDS011;1643;47.746;9.000;2022-07-24T13:00:29;7.77;;;7.07;;
3261;SDS011;1643;47.746;9.000;2022-07-24T13:02:55;6.73;;;6.23;;
3261;SDS011;1643;47.746;9.000;2022-07-24T13:05:39;7.10;;;6.40;;
3261;SDS011;1643;47.746;9.000;2022-07-24T13:08:06;7.60;;;7.00;;
3261;SDS011;1643;47.746;9.000;2022-07-24T13:10:33;8.30;;;7.47;;
3261;SDS011;1643;47.746;9.000;2022-07-24T13:13:00;8.63;;;7.83;;
3261;SDS011;1643;47.746;9.000;2022-07-24T13:15:26;7.67;;;6.97;;
3261;SDS011;1643;47.746;9.000;2022-07-24T13:17:51;7.60;;;6.90;;
3261;SDS011;1643;47.746;9.000;2022-07-24T13:20:18;6.90;;;6.30;;
3261;SDS011;1643;47.746;9.000;2022-07-24T13:22:46;7.47;;;6.80;;
3261;SDS011;1643;47.746;9.000;2022-07-24T13:25:12;7.43;;;6.73;;
3261;SDS011;1643;47.746;9.000;2022-07-24T13:27:37;6.77;;;6.17;;
3261;SDS011;1643;47.746;9.000;2022-07-24T13:30:03;7.67;;;7.03;;
3261;SDS011;1643;47.746;9.000;2022-07-24T13:32:29;6.93;;;6.37;;
3261;SDS011;1643;47.746;9.000;2022-07-24T13:34:55;6.90;;;6.30;;
3261;SDS011;1643;47.746;9.000;2022-07-24T13:37:21;6.80;;;6.20;;
3261;SDS011;1643;47.746;9.000;2022-07-24T13:39:46;7.50;;;6.70;;
3261;SDS011;1643;47.746;9.000;2022-07-24T13:42:12;7.60;;;6.50;;
3261;SDS011;1643;47.746;9.000;2022-07-24T13:44:39;7.40;;;5.77;;
3261;SDS011;1643;47.746;9.000;2022-07-24T13:47:05;6.03;;;5.53;;
3261;SDS011;1643;47.746;9.000;2022-07-24T13:49:31;6.43;;;5.83;;
3261;SDS011;1643;47.746;9.000;2022-07-24T13:51:57;7.07;;;6.37;;
3261;SDS011;1643;47.746;9.000;2022-07-24T13:54:23;10.03;;;6.30;;
3261;SDS011;1643;47.746;9.000;2022-07-24T13:56:48;6.80;;;6.20;;
3261;SDS011;1643;47.746;9.000;2022-07-24T13:59:15;6.57;;;5.97;;
3261;SDS011;1643;47.746;9.000;2022-07-24T14:01:40;6.80;;;6.20;;
3261;SDS011;1643;47.746;9.000;2022-07-24T14:04:06;6.07;;;5.57;;
3261;SDS011;1643;47.746;9.000;2022-07-24T14:06:35;6.00;;;5.30;;
3261;SDS011;1643;47.746;9.000;2022-07-24T14:09:02;6.77;;;6.17;;
3261;SDS011;1643;47.746;9.000;2022-07-24T14:11:28;7.57;;;6.00;;
3261;SDS011;1643;47.746;9.000;2022-07-24T14:13:54;6.17;;;5.67;;
3261;SDS011;1643;47.746;9.000;2022-07-24T14:16:20;6.70;;;6.10;;
3261;SDS011;1643;47.746;9.000;2022-07-24T14:18:46;6.93;;;6.33;;
3261;SDS011;1643;47.746;9.000;2022-07-24T14:21:12;5.97;;;5.37;;
3261;SDS011;1643;47.746;9.000;2022-07-24T14:23:37;8.00;;;6.30;;
3261;SDS011;1643;47.746;9.000;2022-07-24T14:26:03;7.30;;;6.60;;
3261;SDS011;1643;47.746;9.000;2022-07-24T14:28:30;6.07;;;5.57;;
3261;SDS011;1643;47.746;9.000;2022-07-24T14:30:56;6.00;;;5.50;;
3261;SDS011;1643;47.746;9.000;2022-07-24T14:33:22;6.23;;;5.67;;
3261;SDS011;1643;47.746;9.000;2022-07-24T14:35:48;6.87;;;6.27;;
3261;SDS011;1643;47.746;9.000;2022-07-24T14:38:14;6.00;;;5.50;;
3261;SDS011;1643;47.746;9.000;2022-07-24T14:40:42;6.80;;;6.10;;
3261;SDS011;1643;47.746;9.000;2022-07-24T14:43:08;7.10;;;6.50;;
3261;SDS011;1643;47.746;9.000;2022-07-24T14:45:34;5.97;;;5.50;;
3261;SDS011;1643;47.746;9.000;2022-07-24T14:47:59;6.63;;;6.13;;
3261;SDS011;1643;47.746;9.000;2022-07-24T14:50:25;6.10;;;5.60;;
3261;SDS011;1643;47.746;9.000;2022-07-24T14:52:50;7.10;;;6.27;;
3261;SDS011;1643;47.746;9.000;2022-07-24T14:55:16;6.17;;;5.60;;
3261;SDS011;1643;47.746;9.000;2022-07-24T14:57:42;7.33;;;6.70;;
3261;SDS011;1643;47.746;9.000;2022-07-24T15:00:08;6.27;;;5.77;;
3261;SDS011;1643;47.746;9.000;2022-07-24T15:02:34;7.30;;;6.60;;
3261;SDS011;1643;47.746;9.000;2022-07-24T15:05:00;6.30;;;5.70;;
3261;SDS011;1643;47.746;9.000;2022-07-24T15:07:25;7.53;;;6.77;;
3261;SDS011;1643;47.746;9.000;2022-07-24T15:09:51;8.63;;;7.07;;
3261;SDS011;1643;47.746;9.000;2022-07-24T15:12:17;6.33;;;5.83;;
3261;SDS011;1643;47.746;9.000;2022-07-24T15:14:42;7.10;;;6.50;;
3261;SDS011;1643;47.746;9.000;2022-07-24T15:17:08;7.77;;;7.07;;
3261;SDS011;1643;47.746;9.000;2022-07-24T15:19:34;6.70;;;6.10;;
3261;SDS011;1643;47.746;9.000;2022-07-24T15:21:59;8.13;;;7.43;;
3261;SDS011;1643;47.746;9.000;2022-07-24T15:24:25;6.93;;;6.33;;
3261;SDS011;1643;47.746;9.000;2022-07-24T15:26:51;6.83;;;6.20;;
3261;SDS011;1643;47.746;9.000;2022-07-24T15:29:17;6.93;;;6.33;;
3261;SDS011;1643;47.746;9.000;2022-07-24T15:31:43;6.60;;;6.00;;
3261;SDS011;1643;47.746;9.000;2022-07-24T15:34:11;9.23;;;6.80;;
3261;SDS011;1643;47.746;9.000;2022-07-24T15:36:37;6.70;;;6.10;;
3261;SDS011;1643;47.746;9.000;2022-07-24T15:39:03;6.40;;;5.80;;
3261;SDS011;1643;47.746;9.000;2022-07-24T15:41:29;8.97;;;6.03;;
3261;SDS011;1643;47.746;9.000;2022-07-24T15:43:58;8.00;;;6.50;;
3261;SDS011;1643;47.746;9.000;2022-07-24T15:46:24;6.07;;;5.63;;
3261;SDS011;1643;47.746;9.000;2022-07-24T15:48:52;6.30;;;5.70;;
3261;SDS011;1643;47.746;9.000;2022-07-24T15:51:21;8.23;;;6.60;;